Time;durP1;ratioP1;P1;durP2;ratioP2;P2;SDS_P1;SDS_P2;PMS_P1;PMS_P2;Temp;Humidity;BMP_temperature;BMP_pressure;BME280_temperature;BME280_humidity;BME280_pressure;Samples;Min_cycle;Max_cycle;Signal;HPM_P1;HPM_P2
2023/09/27 05:19:41;;;;;;;;;;;;;;;;;;5051865;28;19966;-41
2023/09/27 05:22:07;;;;;;;;;;;;;;;;;;5052433;28;19913;-43
2023/09/27 05:24:38;;;;;;;;;;;;;;;;;;5033679;28;19924;-43
2023/09/27 05:27:05;;;;;;;;;;;;;;;;;;5032086;28;19913;-42
2023/09/27 05:29:31;;;;;;;;;;;;;;;;;;5032836;28;19910;-42
2023/09/27 05:31:57;;;;;;;;;;;;;;;;;;5047222;28;19916;-41
2023/09/27 05:34:23;;;;;;;;;;;;;;;;;;5053300;28;19912;-43
2023/09/27 05:36:49;;;;;;;;;;;;;;;;;;5046950;28;19917;-41
2023/09/27 05:39:15;;;;;;;;;;;;;;;;;;5053308;28;19912;-43
2023/09/27 05:41:40;;;;;;;;;;;;;;;;;;5052476;28;19913;-43
2023/09/27 05:44:06;;;;;;;;;;;;;;;;;;5052991;28;19916;-41
2023/09/27 05:46:33;;;;;;;;;;;;;;;;;;5052995;28;19909;-42
2023/09/27 05:49:01;;;;;;;;;;;;;;;;;;5053428;28;20353;-42
2023/09/27 05:51:29;;;;;;;;;;;;;;;;;;5053722;28;19954;-42
2023/09/27 05:53:54;;;;;;;;;;;;;;;;;;5053463;28;19916;-42
2023/09/27 05:56:20;;;;;;;;;;;;;;;;;;5053305;28;20026;-42
2023/09/27 05:58:46;;;;;;;;;;;;;;;;;;5053194;28;19916;-45
2023/09/27 06:01:12;;;;;;;;;;;;;;;;;;5051496;28;19909;-42
2023/09/27 06:03:41;;;;;;;;;;;;;;;;;;5051475;28;19917;-41
2023/09/27 06:06:07;;;;;;;;;;;;;;;;;;5053265;28;19908;-42
2023/09/27 06:08:33;;;;;;;;;;;;;;;;;;5053100;28;19909;-42
2023/09/27 06:10:59;;;;;;;;;;;;;;;;;;5052405;28;19909;-42
2023/09/27 06:13:26;;;;;;;;;;;;;;;;;;5052596;28;19919;-42
2023/09/27 06:15:54;;;;;;;;;;;;;;;;;;5051954;28;19909;-42
2023/09/27 06:18:20;;;;;;;;;;;;;;;;;;5052670;28;20448;-42
2023/09/27 06:20:47;;;;;;;;;;;;;;;;;;5051772;28;20304;-45
2023/09/27 06:23:13;;;;;;;;;;;;;;;;;;5051802;28;19923;-41
2023/09/27 06:25:43;;;;;;;;;;;;;;;;;;5052507;28;19908;-43
2023/09/27 06:28:11;;;;;;;;;;;;;;;;;;5051442;28;19923;-42
2023/09/27 06:30:37;;;;;;;;;;;;;;;;;;5051610;28;19909;-43
2023/09/27 06:33:03;;;;;;;;;;;;;;;;;;5050533;28;19917;-42
2023/09/27 06:35:31;;;;;;;;;;;;;;;;;;5050408;28;19995;-42
2023/09/27 06:38:00;;;;;;;;;;;;;;;;;;5050732;28;20342;-41
2023/09/27 06:40:26;;;;;;;;;;;;;;;;;;5043944;28;19954;-42
2023/09/27 06:42:52;;;;;;;;;;;;;;;;;;5051030;28;20386;-41
2023/09/27 06:45:18;;;;;;;;;;;;;;;;;;5050318;28;19940;-42
2023/09/27 06:47:45;;;;;;;;;;;;;;;;;;5039460;28;19963;-44
2023/09/27 06:50:11;;;;;;;;;;;;;;;;;;5050792;28;19920;-42
2023/09/27 06:52:40;;;;;;;;;;;;;;;;;;5050530;28;20476;-42
2023/09/27 06:55:10;;;;;;;;;;;;;;;;;;5051362;28;20433;-45
2023/09/27 06:57:36;;;;;;;;;;;;;;;;;;5051157;28;20386;-45
2023/09/27 07:00:03;;;;;;;;;;;;;;;;;;5052240;28;19909;-43
2023/09/27 07:02:29;;;;;;;;;;;;;;;;;;5052195;28;19909;-44
2023/09/27 07:04:55;;;;;;;;;;;;;;;;;;5051964;28;20367;-44
2023/09/27 07:07:21;;;;;;;;;;;;;;;;;;5050696;28;19915;-43
2023/09/27 07:09:47;;;;;;;;;;;;;;;;;;5052176;28;19913;-43
2023/09/27 07:12:13;;;;;;;;;;;;;;;;;;5051017;28;20022;-41
2023/09/27 07:14:40;;;;;;;;;;;;;;;;;;5051903;28;19916;-43
2023/09/27 07:17:06;;;;;;;;;;;;;;;;;;5050537;28;20469;-41
2023/09/27 07:19:32;;;;;;;;;;;;;;;;;;5050259;28;19920;-41
2023/09/27 07:21:59;;;;;;;;;;;;;;;;;;5049830;28;19913;-46
2023/09/27 07:24:25;;;;;;;;;;;;;;;;;;5046217;28;20019;-42
2023/09/27 07:26:52;;;;;;;;;;;;;;;;;;5050430;28;20339;-43
2023/09/27 07:29:18;;;;;;;;;;;;;;;;;;5049569;28;19963;-46
2023/09/27 07:31:44;;;;;;;;;;;;;;;;;;5050795;28;19956;-43
2023/09/27 07:34:10;;;;;;;;;;;;;;;;;;5047297;28;19913;-43
2023/09/27 07:36:36;;;;;;;;;;;;;;;;;;5044235;28;19927;-43
2023/09/27 07:39:05;;;;;;;;;;;;;;;;;;5050381;28;19952;-43
2023/09/27 07:41:31;;;;;;;;;;;;;;;;;;5048067;28;19913;-45
2023/09/27 07:43:58;;;;;;;;;;;;;;;;;;5049400;28;19967;-43
2023/09/27 07:46:24;;;;;;;;;;;;;;;;;;5036677;28;19960;-41
2023/09/27 07:48:50;;;;;;;;;;;;;;;;;;5044664;28;19956;-43
2023/09/27 07:51:19;;;;;;;;;;;;;;;;;;5043418;28;20379;-43
2023/09/27 07:53:45;;;;;;;;;;;;;;;;;;5046724;28;19970;-43
2023/09/27 07:56:11;;;;;;;;;;;;;;;;;;5051762;28;20004;-43
2023/09/27 07:58:41;;;;;;;;;;;;;;;;;;5047371;28;19920;-41
2023/09/27 08:01:07;;;;;;;;;;;;;;;;;;5047314;28;19955;-41
2023/09/27 08:03:33;;;;;;;;;;;;;;;;;;5046836;28;19924;-41
2023/09/27 08:05:59;;;;;;;;;;;;;;;;;;5050508;28;20303;-42
2023/09/27 08:08:25;;;;;;;;;;;;;;;;;;5050380;28;20386;-43
2023/09/27 08:10:51;;;;;;;;;;;;;;;;;;5051001;28;19916;-43
2023/09/27 08:13:17;;;;;;;;;;;;;;;;;;5039664;28;19913;-42
2023/09/27 08:15:43;;;;;;;;;;;;;;;;;;5047907;28;20383;-46
2023/09/27 08:18:09;;;;;;;;;;;;;;;;;;5043185;28;19920;-42
2023/09/27 08:20:35;;;;;;;;;;;;;;;;;;5051319;28;20007;-42
2023/09/27 08:23:01;;;;;;;;;;;;;;;;;;5051623;28;19991;-43
2023/09/27 08:25:27;;;;;;;;;;;;;;;;;;5047138;28;19988;-43
2023/09/27 08:27:53;;;;;;;;;;;;;;;;;;5046105;28;19920;-42
2023/09/27 08:30:19;;;;;;;;;;;;;;;;;;5050851;28;19912;-44
2023/09/27 08:32:46;;;;;;;;;;;;;;;;;;5047388;28;19913;-42
2023/09/27 08:35:12;;;;;;;;;;;;;;;;;;5050258;28;19921;-44
2023/09/27 08:37:37;;;;;;;;;;;;;;;;;;5050903;28;19915;-41
2023/09/27 08:40:12;;;;;;;;;;;;;;;;;;5050545;28;19908;-41
2023/09/27 08:42:38;;;;;;;;;;;;;;;;;;5046811;28;19912;-41
2023/09/27 08:45:04;;;;;;;;;;;;;;;;;;5049632;28;19928;-43
2023/09/27 08:47:30;;;;;;;;;;;;;;;;;;5047878;28;19967;-41
2023/09/27 08:49:58;;;;;;;;;;;;;;;;;;5040839;28;19912;-41
2023/09/27 08:52:24;;;;;;;;;;;;;;;;;;5049842;28;19913;-42
2023/09/27 08:54:49;;;;;;;;;;;;;;;;;;5050009;28;20394;-42
2023/09/27 08:57:15;;;;;;;;;;;;;;;;;;5049846;28;19958;-41
2023/09/27 08:59:41;;;;;;;;;;;;;;;;;;5048948;28;19916;-42
2023/09/27 09:02:09;;;;;;;;;;;;;;;;;;5030744;28;20016;-42
2023/09/27 09:04:34;;;;;;;;;;;;;;;;;;5044261;28;19920;-43
2023/09/27 09:07:02;;;;;;;;;;;;;;;;;;5049611;28;19915;-43
2023/09/27 09:09:30;;;;;;;;;;;;;;;;;;5050171;28;19916;-43
2023/09/27 09:11:58;;;;;;;;;;;;;;;;;;5044317;28;20371;-41
2023/09/27 09:14:24;;;;;;;;;;;;;;;;;;5043399;28;20361;-43
2023/09/27 09:16:49;;;;;;;;;;;;;;;;;;5046907;28;20114;-42
2023/09/27 09:19:19;;;;;;;;;;;;;;;;;;5045365;28;20766;-42
2023/09/27 09:21:46;;;;;;;;;;;;;;;;;;5040031;28;19944;-41
2023/09/27 09:24:12;;;;;;;;;;;;;;;;;;5046069;28;19924;-43
2023/09/27 09:26:38;;;;;;;;;;;;;;;;;;5050080;28;19909;-41
2023/09/27 09:29:05;;;;;;;;;;;;;;;;;;5049528;28;19939;-42
2023/09/27 09:31:31;;;;;;;;;;;;;;;;;;5050225;28;19931;-42
2023/09/27 09:33:57;;;;;;;;;;;;;;;;;;5048964;28;20003;-43
2023/09/27 09:36:23;;;;;;;;;;;;;;;;;;5048608;28;19917;-41
2023/09/27 09:38:49;;;;;;;;;;;;;;;;;;5048576;28;19962;-42
2023/09/27 09:41:15;;;;;;;;;;;;;;;;;;5048506;28;20007;-41
2023/09/27 09:43:41;;;;;;;;;;;;;;;;;;5047422;28;19924;-41
2023/09/27 09:46:08;;;;;;;;;;;;;;;;;;5045828;28;19947;-41
2023/09/27 09:48:34;;;;;;;;;;;;;;;;;;5048686;28;20303;-43
2023/09/27 09:51:00;;;;;;;;;;;;;;;;;;5049353;28;20128;-44
2023/09/27 09:53:25;;;;;;;;;;;;;;;;;;5049718;28;19913;-43
2023/09/27 09:55:51;;;;;;;;;;;;;;;;;;5052299;28;20998;-41
2023/09/27 09:58:17;;;;;;;;;;;;;;;;;;5052589;28;19913;-43
2023/09/27 10:00:49;;;;;;;;;;;;;;;;;;5052066;28;19913;-46
2023/09/27 10:03:19;;;;;;;;;;;;;;;;;;5048283;28;20119;-43
2023/09/27 10:05:45;;;;;;;;;;;;;;;;;;5042257;28;20306;-42
2023/09/27 10:08:11;;;;;;;;;;;;;;;;;;5050930;28;19908;-43
2023/09/27 10:10:37;;;;;;;;;;;;;;;;;;5053505;28;19948;-42
2023/09/27 10:13:03;;;;;;;;;;;;;;;;;;5053313;28;19958;-43
2023/09/27 10:15:29;;;;;;;;;;;;;;;;;;5048369;28;19913;-44
2023/09/27 10:17:55;;;;;;;;;;;;;;;;;;5048633;28;20260;-42
2023/09/27 10:20:22;;;;;;;;;;;;;;;;;;5048656;28;19974;-42
2023/09/27 10:22:48;;;;;;;;;;;;;;;;;;5045339;28;20364;-43
2023/09/27 10:25:13;;;;;;;;;;;;;;;;;;5049532;28;19920;-43
2023/09/27 10:27:39;;;;;;;;;;;;;;;;;;5052893;28;19913;-45
2023/09/27 10:30:05;;;;;;;;;;;;;;;;;;5050372;28;20284;-43
2023/09/27 10:32:31;;;;;;;;;;;;;;;;;;5050663;28;20019;-43
2023/09/27 10:34:57;;;;;;;;;;;;;;;;;;5049094;28;20007;-43
2023/09/27 10:37:23;;;;;;;;;;;;;;;;;;5048447;28;19912;-45
2023/09/27 10:39:49;;;;;;;;;;;;;;;;;;5050291;28;19936;-46
2023/09/27 10:42:15;;;;;;;;;;;;;;;;;;5053103;28;19994;-44
2023/09/27 10:44:43;;;;;;;;;;;;;;;;;;5053436;28;20290;-42
2023/09/27 10:47:09;;;;;;;;;;;;;;;;;;5052241;28;20004;-43
2023/09/27 10:49:38;;;;;;;;;;;;;;;;;;5053322;28;19987;-44
2023/09/27 10:52:04;;;;;;;;;;;;;;;;;;5053090;28;19920;-44
2023/09/27 10:54:31;;;;;;;;;;;;;;;;;;5052271;28;20421;-44
2023/09/27 10:56:57;;;;;;;;;;;;;;;;;;5051209;28;19913;-44
2023/09/27 10:59:22;;;;;;;;;;;;;;;;;;5053073;28;20302;-42
2023/09/27 11:01:48;;;;;;;;;;;;;;;;;;5047760;28;19913;-46
2023/09/27 11:04:14;;;;;;;;;;;;;;;;;;5048366;28;19967;-45
2023/09/27 11:06:40;;;;;;;;;;;;;;;;;;5051970;28;19913;-43
2023/09/27 11:09:06;;;;;;;;;;;;;;;;;;5047992;28;19913;-44
2023/09/27 11:11:32;;;;;;;;;;;;;;;;;;5035829;28;19913;-42
2023/09/27 11:13:58;;;;;;;;;;;;;;;;;;5052809;28;19916;-44
2023/09/27 11:16:24;;;;;;;;;;;;;;;;;;5049756;28;20003;-44
2023/09/27 11:18:51;;;;;;;;;;;;;;;;;;5058388;28;19966;-43
2023/09/27 11:21:17;;;;;;;;;;;;;;;;;;5047026;28;19917;-45
2023/09/27 11:23:43;;;;;;;;;;;;;;;;;;5050135;28;20245;-47
2023/09/27 11:26:09;;;;;;;;;;;;;;;;;;5048542;28;20003;-45
2023/09/27 11:28:35;;;;;;;;;;;;;;;;;;5050176;28;19991;-45
2023/09/27 11:31:03;;;;;;;;;;;;;;;;;;5049741;28;19916;-46
2023/09/27 11:33:29;;;;;;;;;;;;;;;;;;5048641;28;19955;-47
2023/09/27 11:35:55;;;;;;;;;;;;;;;;;;5048358;28;19963;-47
2023/09/27 11:38:21;;;;;;;;;;;;;;;;;;5045488;28;20348;-42
2023/09/27 11:40:48;;;;;;;;;;;;;;;;;;5045251;28;19960;-42
2023/09/27 11:43:14;;;;;;;;;;;;;;;;;;5043963;28;19921;-44
2023/09/27 11:45:40;;;;;;;;;;;;;;;;;;5042039;28;20418;-44
2023/09/27 11:48:06;;;;;;;;;;;;;;;;;;5042150;28;19944;-42
2023/09/27 11:50:32;;;;;;;;;;;;;;;;;;5045523;28;19912;-43
2023/09/27 11:52:58;;;;;;;;;;;;;;;;;;5043626;28;19967;-43
2023/09/27 11:55:24;;;;;;;;;;;;;;;;;;5043804;28;19921;-44
2023/09/27 11:57:49;;;;;;;;;;;;;;;;;;5042164;28;19936;-47
2023/09/27 12:00:15;;;;;;;;;;;;;;;;;;5043522;28;19921;-44
2023/09/27 12:02:41;;;;;;;;;;;;;;;;;;5043126;28;20228;-46
2023/09/27 12:05:07;;;;;;;;;;;;;;;;;;5042159;28;19925;-45
2023/09/27 12:07:33;;;;;;;;;;;;;;;;;;5044253;28;20307;-44
2023/09/27 12:09:59;;;;;;;;;;;;;;;;;;5043923;28;19921;-44
2023/09/27 12:12:25;;;;;;;;;;;;;;;;;;5043211;28;19912;-45
2023/09/27 12:14:51;;;;;;;;;;;;;;;;;;5042331;28;19919;-43
2023/09/27 12:17:17;;;;;;;;;;;;;;;;;;5042547;28;20014;-45
2023/09/27 12:19:45;;;;;;;;;;;;;;;;;;5044206;28;20421;-44
2023/09/27 12:22:11;;;;;;;;;;;;;;;;;;5039460;28;20004;-43
2023/09/27 12:24:37;;;;;;;;;;;;;;;;;;5049410;28;19912;-45
2023/09/27 12:27:02;;;;;;;;;;;;;;;;;;5049213;28;19912;-45
2023/09/27 12:29:28;;;;;;;;;;;;;;;;;;5049111;28;19909;-45
2023/09/27 12:31:54;;;;;;;;;;;;;;;;;;5048106;28;19992;-45
2023/09/27 12:34:20;;;;;;;;;;;;;;;;;;5049135;28;19919;-45
2023/09/27 12:36:47;;;;;;;;;;;;;;;;;;5047476;28;19967;-44
2023/09/27 12:39:13;;;;;;;;;;;;;;;;;;5043959;28;19948;-43
2023/09/27 12:41:39;;;;;;;;;;;;;;;;;;5044281;28;19990;-43
2023/09/27 12:44:05;;;;;;;;;;;;;;;;;;5048888;28;20015;-43
2023/09/27 12:46:31;;;;;;;;;;;;;;;;;;5057843;28;20375;-43
2023/09/27 12:48:57;;;;;;;;;;;;;;;;;;5046711;28;20010;-44
2023/09/27 12:51:23;;;;;;;;;;;;;;;;;;5043875;28;19936;-44
2023/09/27 12:53:49;;;;;;;;;;;;;;;;;;5043469;28;19948;-44
2023/09/27 12:56:15;;;;;;;;;;;;;;;;;;5042524;28;19912;-44
2023/09/27 12:58:42;;;;;;;;;;;;;;;;;;5041796;28;19913;-44
2023/09/27 13:01:08;;;;;;;;;;;;;;;;;;5044641;28;19913;-47
2023/09/27 13:03:34;;;;;;;;;;;;;;;;;;5043918;28;20033;-44
2023/09/27 13:06:00;;;;;;;;;;;;;;;;;;5043811;28;19917;-44
2023/09/27 13:08:26;;;;;;;;;;;;;;;;;;5043414;28;20363;-43
2023/09/27 13:10:52;;;;;;;;;;;;;;;;;;5043795;28;19912;-43
2023/09/27 13:13:18;;;;;;;;;;;;;;;;;;5042211;28;20395;-43
2023/09/27 13:15:44;;;;;;;;;;;;;;;;;;5044072;28;19942;-42
2023/09/27 13:18:10;;;;;;;;;;;;;;;;;;5043095;28;19999;-43
2023/09/27 13:20:36;;;;;;;;;;;;;;;;;;5047060;28;19968;-44
2023/09/27 13:23:02;;;;;;;;;;;;;;;;;;5047768;28;19920;-44
2023/09/27 13:25:28;;;;;;;;;;;;;;;;;;5049790;28;19909;-44
2023/09/27 13:27:53;;;;;;;;;;;;;;;;;;5052564;28;19913;-45
2023/09/27 13:30:19;;;;;;;;;;;;;;;;;;5052904;28;19909;-43
2023/09/27 13:32:45;;;;;;;;;;;;;;;;;;5052200;28;19916;-43
2023/09/27 13:35:11;;;;;;;;;;;;;;;;;;5052409;28;19962;-44
2023/09/27 13:37:37;;;;;;;;;;;;;;;;;;5052182;28;19955;-45
2023/09/27 13:40:04;;;;;;;;;;;;;;;;;;5052281;28;20464;-45
2023/09/27 13:42:30;;;;;;;;;;;;;;;;;;5052237;28;19909;-44
2023/09/27 13:44:56;;;;;;;;;;;;;;;;;;5051428;28;19970;-44
2023/09/27 13:47:22;;;;;;;;;;;;;;;;;;5043724;28;19913;-44
2023/09/27 13:49:49;;;;;;;;;;;;;;;;;;5050202;28;19936;-44
2023/09/27 13:52:15;;;;;;;;;;;;;;;;;;5048183;28;19919;-44
2023/09/27 13:54:41;;;;;;;;;;;;;;;;;;5051700;28;19909;-44
2023/09/27 13:57:07;;;;;;;;;;;;;;;;;;5037320;28;19955;-44
2023/09/27 13:59:34;;;;;;;;;;;;;;;;;;5031735;28;19948;-44
2023/09/27 14:01:59;;;;;;;;;;;;;;;;;;5031229;28;19967;-47
2023/09/27 14:04:27;;;;;;;;;;;;;;;;;;5031578;28;19913;-45
2023/09/27 14:06:54;;;;;;;;;;;;;;;;;;5032107;28;19916;-43
2023/09/27 14:09:19;;;;;;;;;;;;;;;;;;5042914;28;20281;-46
2023/09/27 14:11:45;;;;;;;;;;;;;;;;;;5051004;28;19916;-46
2023/09/27 14:14:13;;;;;;;;;;;;;;;;;;5050691;28;19916;-45
2023/09/27 14:16:39;;;;;;;;;;;;;;;;;;5050792;28;20015;-47
2023/09/27 14:19:05;;;;;;;;;;;;;;;;;;5048984;28;20490;-44
2023/09/27 14:21:32;;;;;;;;;;;;;;;;;;5050935;28;19920;-45
2023/09/27 14:23:58;;;;;;;;;;;;;;;;;;5050564;28;19966;-44
2023/09/27 14:26:25;;;;;;;;;;;;;;;;;;5047479;28;20284;-46
2023/09/27 14:28:51;;;;;;;;;;;;;;;;;;5045703;28;19920;-45
2023/09/27 14:31:22;;;;;;;;;;;;;;;;;;5045656;28;20213;-45
2023/09/27 14:33:48;;;;;;;;;;;;;;;;;;5044967;28;19919;-46
2023/09/27 14:36:14;;;;;;;;;;;;;;;;;;5045901;28;19920;-48
2023/09/27 14:38:40;;;;;;;;;;;;;;;;;;5047373;28;19912;-47
2023/09/27 14:41:06;;;;;;;;;;;;;;;;;;5050222;28;19909;-47
2023/09/27 14:43:34;;;;;;;;;;;;;;;;;;5048283;28;20038;-46
2023/09/27 14:46:00;;;;;;;;;;;;;;;;;;5049753;28;19913;-45
2023/09/27 14:48:26;;;;;;;;;;;;;;;;;;5047497;28;20371;-46
2023/09/27 14:50:52;;;;;;;;;;;;;;;;;;5050914;28;19909;-46
2023/09/27 14:53:18;;;;;;;;;;;;;;;;;;5049983;28;20016;-45
2023/09/27 14:55:44;;;;;;;;;;;;;;;;;;5049355;28;19975;-44
2023/09/27 14:58:10;;;;;;;;;;;;;;;;;;5041417;28;20280;-45
2023/09/27 15:00:36;;;;;;;;;;;;;;;;;;5049591;28;19909;-47
2023/09/27 15:03:02;;;;;;;;;;;;;;;;;;5034647;28;19928;-44
2023/09/27 15:05:28;;;;;;;;;;;;;;;;;;5032283;28;19909;-45
2023/09/27 15:07:54;;;;;;;;;;;;;;;;;;5049076;28;20642;-46
2023/09/27 15:10:20;;;;;;;;;;;;;;;;;;5049977;28;19915;-46
2023/09/27 15:12:47;;;;;;;;;;;;;;;;;;5048553;28;19916;-46
2023/09/27 15:15:13;;;;;;;;;;;;;;;;;;5049188;28;20387;-48
2023/09/27 15:17:39;;;;;;;;;;;;;;;;;;5048147;28;20410;-49
2023/09/27 15:20:05;;;;;;;;;;;;;;;;;;5049443;28;20291;-44
2023/09/27 15:22:31;;;;;;;;;;;;;;;;;;5050231;28;19912;-48
2023/09/27 15:24:57;;;;;;;;;;;;;;;;;;5049182;28;19916;-48
2023/09/27 15:27:23;;;;;;;;;;;;;;;;;;5049316;28;20352;-49
2023/09/27 15:29:49;;;;;;;;;;;;;;;;;;5043682;28;19964;-45
2023/09/27 15:32:15;;;;;;;;;;;;;;;;;;5041973;28;19909;-43
2023/09/27 15:34:41;;;;;;;;;;;;;;;;;;5048306;28;20003;-44
2023/09/27 15:37:06;;;;;;;;;;;;;;;;;;5049203;28;19913;-48
2023/09/27 15:39:32;;;;;;;;;;;;;;;;;;5049785;28;19955;-48
2023/09/27 15:41:59;;;;;;;;;;;;;;;;;;5049207;28;19963;-46
2023/09/27 15:44:25;;;;;;;;;;;;;;;;;;5048701;28;19963;-47
2023/09/27 15:46:51;;;;;;;;;;;;;;;;;;5049248;28;19944;-44
2023/09/27 15:49:17;;;;;;;;;;;;;;;;;;5048848;28;19905;-46
2023/09/27 15:51:43;;;;;;;;;;;;;;;;;;5048841;28;19935;-47
2023/09/27 15:54:09;;;;;;;;;;;;;;;;;;5048983;28;19904;-48
2023/09/27 15:56:35;;;;;;;;;;;;;;;;;;5049416;28;19916;-44
2023/09/27 15:59:05;;;;;;;;;;;;;;;;;;5049516;28;19913;-47
2023/09/27 16:01:30;;;;;;;;;;;;;;;;;;5048905;28;19991;-48
2023/09/27 16:03:56;;;;;;;;;;;;;;;;;;5042470;28;20004;-45
2023/09/27 16:06:22;;;;;;;;;;;;;;;;;;5028771;28;19909;-44
2023/09/27 16:08:50;;;;;;;;;;;;;;;;;;5028602;28;19909;-46
2023/09/27 16:11:16;;;;;;;;;;;;;;;;;;5028236;28;19955;-45
2023/09/27 16:13:42;;;;;;;;;;;;;;;;;;5035784;28;19913;-44
2023/09/27 16:16:07;;;;;;;;;;;;;;;;;;5048735;28;19944;-45
2023/09/27 16:18:33;;;;;;;;;;;;;;;;;;5046954;28;20112;-45
2023/09/27 16:20:59;;;;;;;;;;;;;;;;;;5027579;28;19921;-45
2023/09/27 16:23:25;;;;;;;;;;;;;;;;;;5027529;28;19913;-45
2023/09/27 16:25:51;;;;;;;;;;;;;;;;;;5027620;28;19909;-48
2023/09/27 16:28:17;;;;;;;;;;;;;;;;;;5027657;28;20498;-46
2023/09/27 16:30:43;;;;;;;;;;;;;;;;;;5027902;28;19909;-47
2023/09/27 16:33:09;;;;;;;;;;;;;;;;;;5027688;28;19920;-47
2023/09/27 16:35:35;;;;;;;;;;;;;;;;;;5028230;28;19909;-48
2023/09/27 16:38:01;;;;;;;;;;;;;;;;;;5027723;28;19909;-45
2023/09/27 16:40:27;;;;;;;;;;;;;;;;;;5027348;28;20465;-47
2023/09/27 16:42:53;;;;;;;;;;;;;;;;;;5027736;28;19910;-44
2023/09/27 16:45:19;;;;;;;;;;;;;;;;;;5027372;28;20008;-47
2023/09/27 16:47:45;;;;;;;;;;;;;;;;;;5027471;28;19917;-47
2023/09/27 16:50:11;;;;;;;;;;;;;;;;;;5027442;28;19932;-46
2023/09/27 16:52:37;;;;;;;;;;;;;;;;;;5028073;28;19916;-44
2023/09/27 16:55:03;;;;;;;;;;;;;;;;;;5027408;28;19924;-45
2023/09/27 16:57:29;;;;;;;;;;;;;;;;;;5027347;28;19920;-44
2023/09/27 16:59:54;;;;;;;;;;;;;;;;;;5027737;28;19905;-48
2023/09/27 17:02:20;;;;;;;;;;;;;;;;;;5030556;28;20391;-45
2023/09/27 17:04:46;;;;;;;;;;;;;;;;;;5030789;28;19913;-45
2023/09/27 17:07:12;;;;;;;;;;;;;;;;;;5030994;28;19924;-44
2023/09/27 17:09:38;;;;;;;;;;;;;;;;;;5031392;28;19915;-46
2023/09/27 17:12:04;;;;;;;;;;;;;;;;;;5042576;28;19941;-45
2023/09/27 17:14:30;;;;;;;;;;;;;;;;;;5050678;28;19913;-46
2023/09/27 17:16:56;;;;;;;;;;;;;;;;;;5050972;28;19919;-45
2023/09/27 17:19:24;;;;;;;;;;;;;;;;;;4988302;28;1775605;-44
2023/09/27 17:21:53;;;;;;;;;;;;;;;;;;5052027;28;19939;-45
2023/09/27 17:24:19;;;;;;;;;;;;;;;;;;5052207;28;20295;-46
2023/09/27 17:26:46;;;;;;;;;;;;;;;;;;5052045;28;19956;-44
2023/09/27 17:29:12;;;;;;;;;;;;;;;;;;5052194;28;20375;-47
2023/09/27 17:31:40;;;;;;;;;;;;;;;;;;5052569;28;19908;-44
2023/09/27 17:34:07;;;;;;;;;;;;;;;;;;5052727;28;19908;-49
2023/09/27 17:36:33;;;;;;;;;;;;;;;;;;5051958;28;19909;-45
2023/09/27 17:38:59;;;;;;;;;;;;;;;;;;5047606;28;19931;-44
2023/09/27 17:41:24;;;;;;;;;;;;;;;;;;5049363;28;19919;-43
2023/09/27 17:43:51;;;;;;;;;;;;;;;;;;5051183;28;20319;-44
2023/09/27 17:46:17;;;;;;;;;;;;;;;;;;5050952;28;19913;-47
2023/09/27 17:48:43;;;;;;;;;;;;;;;;;;5049867;28;19912;-47
2023/09/27 17:51:09;;;;;;;;;;;;;;;;;;5050973;28;20020;-44
2023/09/27 17:53:35;;;;;;;;;;;;;;;;;;5044273;28;19920;-47
2023/09/27 17:56:01;;;;;;;;;;;;;;;;;;5044910;28;19978;-44
2023/09/27 17:58:27;;;;;;;;;;;;;;;;;;5045139;28;20418;-44
2023/09/27 18:00:53;;;;;;;;;;;;;;;;;;5045613;28;19958;-45
2023/09/27 18:03:18;;;;;;;;;;;;;;;;;;5044386;28;19959;-45
2023/09/27 18:05:45;;;;;;;;;;;;;;;;;;5047132;28;19952;-44
2023/09/27 18:08:11;;;;;;;;;;;;;;;;;;5045937;28;20341;-44
2023/09/27 18:10:37;;;;;;;;;;;;;;;;;;5049675;28;19942;-46
2023/09/27 18:13:03;;;;;;;;;;;;;;;;;;5045683;28;20118;-47
2023/09/27 18:15:29;;;;;;;;;;;;;;;;;;5047697;28;19913;-45
2023/09/27 18:17:55;;;;;;;;;;;;;;;;;;5040128;28;19913;-44
2023/09/27 18:20:21;;;;;;;;;;;;;;;;;;5042320;28;19916;-44
2023/09/27 18:22:47;;;;;;;;;;;;;;;;;;5042929;28;19936;-44
2023/09/27 18:25:13;;;;;;;;;;;;;;;;;;5045425;28;20597;-43
2023/09/27 18:27:39;;;;;;;;;;;;;;;;;;5043157;28;19925;-45
2023/09/27 18:30:06;;;;;;;;;;;;;;;;;;5044679;28;20280;-45
2023/09/27 18:32:32;;;;;;;;;;;;;;;;;;5042768;28;20274;-43
2023/09/27 18:34:58;;;;;;;;;;;;;;;;;;5040931;28;19919;-44
2023/09/27 18:37:24;;;;;;;;;;;;;;;;;;5042409;28;19921;-43
2023/09/27 18:39:50;;;;;;;;;;;;;;;;;;5047375;28;20387;-47
2023/09/27 18:42:16;;;;;;;;;;;;;;;;;;5044568;28;19917;-44
2023/09/27 18:44:44;;;;;;;;;;;;;;;;;;5046612;28;19920;-45
2023/09/27 18:47:10;;;;;;;;;;;;;;;;;;5047622;28;19959;-43
2023/09/27 18:49:36;;;;;;;;;;;;;;;;;;5045907;28;20347;-44
2023/09/27 18:52:03;;;;;;;;;;;;;;;;;;5045543;28;19929;-43
2023/09/27 18:54:29;;;;;;;;;;;;;;;;;;5043731;28;19913;-46
2023/09/27 18:56:55;;;;;;;;;;;;;;;;;;5046115;28;19913;-45
2023/09/27 18:59:21;;;;;;;;;;;;;;;;;;5046374;28;19956;-45
2023/09/27 19:01:47;;;;;;;;;;;;;;;;;;5037629;28;19967;-45
2023/09/27 19:04:13;;;;;;;;;;;;;;;;;;5038175;28;19928;-45
2023/09/27 19:06:39;;;;;;;;;;;;;;;;;;5047622;28;20327;-45
2023/09/27 19:09:05;;;;;;;;;;;;;;;;;;5045965;28;20391;-46
2023/09/27 19:11:30;;;;;;;;;;;;;;;;;;5046891;28;19913;-43
2023/09/27 19:13:56;;;;;;;;;;;;;;;;;;5046176;28;19912;-45
2023/09/27 19:16:22;;;;;;;;;;;;;;;;;;5044460;28;20003;-47
2023/09/27 19:18:49;;;;;;;;;;;;;;;;;;5044545;28;19913;-43
2023/09/27 19:21:15;;;;;;;;;;;;;;;;;;5046025;28;20340;-44
2023/09/27 19:23:40;;;;;;;;;;;;;;;;;;5045838;28;19924;-43
2023/09/27 19:26:07;;;;;;;;;;;;;;;;;;5046393;28;19952;-47
2023/09/27 19:28:33;;;;;;;;;;;;;;;;;;5047523;28;20054;-48
2023/09/27 19:30:58;;;;;;;;;;;;;;;;;;5045551;28;20003;-47
2023/09/27 19:33:24;;;;;;;;;;;;;;;;;;5046239;28;19924;-45
2023/09/27 19:35:50;;;;;;;;;;;;;;;;;;5045316;28;19959;-44
2023/09/27 19:38:16;;;;;;;;;;;;;;;;;;5046434;28;20403;-44
2023/09/27 19:40:42;;;;;;;;;;;;;;;;;;5044632;28;19915;-47
2023/09/27 19:43:08;;;;;;;;;;;;;;;;;;5042099;28;20375;-44
2023/09/27 19:45:34;;;;;;;;;;;;;;;;;;5045212;28;19921;-44
2023/09/27 19:48:00;;;;;;;;;;;;;;;;;;5044341;28;19913;-46
2023/09/27 19:50:26;;;;;;;;;;;;;;;;;;5043452;28;19996;-46
2023/09/27 19:52:52;;;;;;;;;;;;;;;;;;5046401;28;19912;-45
2023/09/27 19:55:18;;;;;;;;;;;;;;;;;;5045860;28;19924;-44
2023/09/27 19:57:44;;;;;;;;;;;;;;;;;;5045438;28;19921;-45
2023/09/27 20:00:10;;;;;;;;;;;;;;;;;;5044368;28;20295;-44
2023/09/27 20:02:36;;;;;;;;;;;;;;;;;;5047265;28;20335;-43
2023/09/27 20:05:02;;;;;;;;;;;;;;;;;;5046957;28;19963;-44
2023/09/27 20:07:28;;;;;;;;;;;;;;;;;;5044292;28;19960;-44
2023/09/27 20:09:54;;;;;;;;;;;;;;;;;;5042932;28;20224;-44
2023/09/27 20:12:20;;;;;;;;;;;;;;;;;;5044375;28;19917;-45
2023/09/27 20:14:46;;;;;;;;;;;;;;;;;;5045364;28;19971;-45
2023/09/27 20:17:12;;;;;;;;;;;;;;;;;;5044162;28;19940;-45
2023/09/27 20:19:38;;;;;;;;;;;;;;;;;;5045473;28;19917;-44
2023/09/27 20:22:04;;;;;;;;;;;;;;;;;;5044294;28;19925;-44
2023/09/27 20:24:30;;;;;;;;;;;;;;;;;;5044612;28;20341;-44
2023/09/27 20:26:55;;;;;;;;;;;;;;;;;;5045631;28;20223;-44
2023/09/27 20:29:21;;;;;;;;;;;;;;;;;;5043892;28;19921;-44
2023/09/27 20:31:48;;;;;;;;;;;;;;;;;;5045618;28;19924;-46
2023/09/27 20:34:14;;;;;;;;;;;;;;;;;;5044679;28;19913;-43
2023/09/27 20:36:40;;;;;;;;;;;;;;;;;;5045678;28;19958;-46
2023/09/27 20:39:08;;;;;;;;;;;;;;;;;;5044274;28;19913;-45
2023/09/27 20:41:34;;;;;;;;;;;;;;;;;;5046458;28;19920;-44
2023/09/27 20:44:00;;;;;;;;;;;;;;;;;;5043525;28;20302;-45
2023/09/27 20:46:26;;;;;;;;;;;;;;;;;;5043215;28;20391;-43
2023/09/27 20:48:52;;;;;;;;;;;;;;;;;;5044385;28;19921;-44
2023/09/27 20:51:18;;;;;;;;;;;;;;;;;;5044641;28;19913;-44
2023/09/27 20:53:43;;;;;;;;;;;;;;;;;;5041807;28;19917;-48
2023/09/27 20:56:10;;;;;;;;;;;;;;;;;;5044129;28;19912;-44
2023/09/27 20:58:40;;;;;;;;;;;;;;;;;;5042542;28;19996;-45
2023/09/27 21:01:09;;;;;;;;;;;;;;;;;;5041889;28;19916;-43
2023/09/27 21:03:35;;;;;;;;;;;;;;;;;;5036371;28;20291;-46
2023/09/27 21:06:01;;;;;;;;;;;;;;;;;;5042619;28;19913;-46
2023/09/27 21:08:27;;;;;;;;;;;;;;;;;;5045965;28;19912;-45
2023/09/27 21:10:53;;;;;;;;;;;;;;;;;;5043274;28;19917;-43
2023/09/27 21:13:19;;;;;;;;;;;;;;;;;;5042114;28;19916;-45
2023/09/27 21:15:45;;;;;;;;;;;;;;;;;;5040585;28;19921;-47
2023/09/27 21:18:11;;;;;;;;;;;;;;;;;;5041466;28;20644;-46
2023/09/27 21:20:37;;;;;;;;;;;;;;;;;;5042498;28;19963;-46
2023/09/27 21:23:03;;;;;;;;;;;;;;;;;;5040905;28;20349;-44
2023/09/27 21:25:29;;;;;;;;;;;;;;;;;;5040564;28;19925;-45
2023/09/27 21:27:54;;;;;;;;;;;;;;;;;;5044296;28;19952;-44
2023/09/27 21:30:20;;;;;;;;;;;;;;;;;;5041874;28;19974;-46
2023/09/27 21:32:46;;;;;;;;;;;;;;;;;;5043696;28;19920;-46
2023/09/27 21:35:13;;;;;;;;;;;;;;;;;;5043988;28;20310;-44
2023/09/27 21:37:39;;;;;;;;;;;;;;;;;;5039454;28;20007;-44
2023/09/27 21:40:05;;;;;;;;;;;;;;;;;;5045440;28;19935;-45
2023/09/27 21:42:31;;;;;;;;;;;;;;;;;;5042774;28;19958;-46
2023/09/27 21:44:57;;;;;;;;;;;;;;;;;;5040516;28;19917;-44
2023/09/27 21:47:23;;;;;;;;;;;;;;;;;;5028469;28;19913;-44
2023/09/27 21:49:49;;;;;;;;;;;;;;;;;;5029457;28;19910;-44
2023/09/27 21:52:15;;;;;;;;;;;;;;;;;;5029319;28;19939;-46
2023/09/27 21:54:41;;;;;;;;;;;;;;;;;;5030098;28;19909;-43
2023/09/27 21:57:07;;;;;;;;;;;;;;;;;;5044417;28;20007;-46